Time;durP1;ratioP1;P1;durP2;ratioP2;P2;SDS_P1;SDS_P2;PMS_P1;PMS_P2;Temp;Humidity;BMP_temperature;BMP_pressure;BME280_temperature;BME280_humidity;BME280_pressure;Samples;Min_cycle;Max_cycle;Signal;HPM_P1;HPM_P2
2023/09/10 00:00:57;;;;;;;4.97;4.65;;;21.90;99.90;;;;;;5010661;28;20265;-71
2023/09/10 00:03:24;;;;;;;5.28;4.85;;;21.90;99.90;;;;;;5007259;28;20259;-71
2023/09/10 00:05:51;;;;;;;5.18;4.68;;;21.90;99.90;;;;;;5008024;28;20255;-71
2023/09/10 00:08:19;;;;;;;5.45;4.95;;;21.90;99.90;;;;;;5008403;28;20645;-71
2023/09/10 00:10:47;;;;;;;5.30;4.90;;;21.90;99.90;;;;;;5006883;28;20734;-70
2023/09/10 00:13:14;;;;;;;4.93;4.53;;;22.00;99.90;;;;;;5006844;28;20236;-71
2023/09/10 00:15:41;;;;;;;5.15;4.68;;;22.00;99.90;;;;;;5006544;28;20243;-71
2023/09/10 00:18:08;;;;;;;5.10;4.70;;;22.00;99.90;;;;;;5009800;28;20751;-70
2023/09/10 00:20:35;;;;;;;5.22;4.72;;;22.00;99.90;;;;;;5004862;28;20232;-70
2023/09/10 00:23:02;;;;;;;5.47;4.88;;;22.00;99.90;;;;;;4986382;28;20259;-70
2023/09/10 00:25:31;;;;;;;5.28;4.88;;;22.00;99.90;;;;;;5007545;28;20220;-71
2023/09/10 00:27:58;;;;;;;5.25;4.85;;;22.00;99.90;;;;;;5005966;28;20310;-70
2023/09/10 00:30:28;;;;;;;4.78;4.38;;;22.00;99.90;;;;;;4988635;28;20226;-70
2023/09/10 00:32:55;;;;;;;5.32;4.93;;;22.00;99.90;;;;;;4988808;28;20204;-70
2023/09/10 00:35:22;;;;;;;5.20;4.80;;;21.90;99.90;;;;;;5009119;28;20270;-70
2023/09/10 00:37:49;;;;;;;4.90;4.53;;;21.90;99.90;;;;;;5005935;28;20745;-70
2023/09/10 00:40:16;;;;;;;5.60;4.47;;;21.90;99.90;;;;;;4993675;28;20200;-70
2023/09/10 00:42:45;;;;;;;4.95;4.53;;;21.90;99.90;;;;;;5009828;28;20298;-70
2023/09/10 00:45:13;;;;;;;4.93;4.57;;;21.90;99.90;;;;;;5007670;28;20321;-70
2023/09/10 00:47:44;;;;;;;5.00;4.63;;;21.90;99.90;;;;;;5005426;28;20258;-70
2023/09/10 00:50:11;;;;;;;4.75;4.45;;;21.90;99.90;;;;;;5006191;28;20316;-70
2023/09/10 00:52:42;;;;;;;4.82;4.43;;;21.90;99.90;;;;;;5006370;28;20232;-70
2023/09/10 00:55:09;;;;;;;4.32;4.00;;;21.80;99.90;;;;;;5004412;28;20220;-70
2023/09/10 00:57:37;;;;;;;7.03;5.63;;;21.70;99.90;;;;;;5005991;28;20227;-70
2023/09/10 01:00:09;;;;;;;4.85;4.45;;;21.70;99.90;;;;;;5003239;28;20247;-70
2023/09/10 01:02:37;;;;;;;4.70;4.30;;;21.70;99.90;;;;;;5003186;28;20234;-70
2023/09/10 01:05:04;;;;;;;4.88;4.57;;;21.60;99.90;;;;;;5005387;28;20243;-70
2023/09/10 01:07:31;;;;;;;5.05;4.75;;;21.60;99.90;;;;;;5008424;28;20204;-70
2023/09/10 01:09:58;;;;;;;5.22;4.72;;;21.60;99.90;;;;;;4988026;28;20200;-70
2023/09/10 01:12:34;;;;;;;5.32;4.93;;;21.60;99.90;;;;;;5003111;28;20281;-71
2023/09/10 01:15:13;;;;;;;5.00;4.60;;;21.50;99.90;;;;;;4983687;28;20230;-71
2023/09/10 01:17:48;;;;;;;5.25;4.85;;;21.50;99.90;;;;;;5002984;28;20207;-71
2023/09/10 01:20:29;;;;;;;5.45;5.00;;;21.50;99.90;;;;;;5001896;28;20689;-71
2023/09/10 01:23:04;;;;;;;4.57;4.18;;;21.50;99.90;;;;;;5004580;28;20261;-71
2023/09/10 01:25:33;;;;;;;5.30;4.80;;;21.40;99.90;;;;;;5002302;28;20214;-71
2023/09/10 01:28:03;;;;;;;5.10;4.70;;;21.40;99.90;;;;;;5002704;28;20214;-71
2023/09/10 01:30:31;;;;;;;5.55;5.05;;;21.40;99.90;;;;;;5005921;28;20225;-71
2023/09/10 01:33:04;;;;;;;5.55;5.15;;;21.40;99.90;;;;;;5004352;28;20204;-71
2023/09/10 01:35:35;;;;;;;5.20;4.80;;;21.40;99.90;;;;;;5007928;28;20286;-71
2023/09/10 01:38:08;;;;;;;4.80;4.40;;;21.40;99.90;;;;;;5008649;28;20236;-71
2023/09/10 01:40:43;;;;;;;5.45;5.05;;;21.40;99.90;;;;;;5008671;28;20204;-71
2023/09/10 01:43:11;;;;;;;5.40;5.00;;;21.40;99.90;;;;;;5007767;28;20200;-71
2023/09/10 01:45:39;;;;;;;5.68;5.22;;;21.40;99.90;;;;;;5010016;28;20333;-71
2023/09/10 01:48:07;;;;;;;5.35;4.95;;;21.40;99.90;;;;;;5007445;28;20212;-71
2023/09/10 01:50:35;;;;;;;5.60;5.10;;;21.40;99.90;;;;;;5006986;28;20966;-70
2023/09/10 01:53:02;;;;;;;5.22;4.72;;;21.30;99.90;;;;;;5004829;28;20293;-70
2023/09/10 01:55:29;;;;;;;5.78;5.28;;;21.30;99.90;;;;;;4991275;28;20248;-70
2023/09/10 01:57:58;;;;;;;5.15;4.75;;;21.30;99.90;;;;;;5006540;28;20694;-70
2023/09/10 02:00:25;;;;;;;5.57;5.10;;;21.20;99.90;;;;;;5008964;28;20235;-70
2023/09/10 02:02:52;;;;;;;5.43;4.93;;;21.20;99.90;;;;;;5006910;28;20267;-70
2023/09/10 02:05:20;;;;;;;5.30;4.90;;;21.20;99.90;;;;;;5007854;28;20296;-70
2023/09/10 02:07:47;;;;;;;5.65;5.18;;;21.20;99.90;;;;;;4975646;28;20204;-70
2023/09/10 02:10:14;;;;;;;5.20;4.70;;;21.20;99.90;;;;;;5007314;28;20189;-69
2023/09/10 02:12:41;;;;;;;5.57;5.07;;;21.20;99.90;;;;;;5009408;28;20236;-70
2023/09/10 02:15:12;;;;;;;5.45;5.05;;;21.20;99.90;;;;;;5007902;28;20260;-70
2023/09/10 02:17:39;;;;;;;6.10;5.60;;;21.20;99.90;;;;;;5009764;28;20216;-70
2023/09/10 02:20:09;;;;;;;5.43;5.03;;;21.20;99.90;;;;;;5008617;28;20220;-70
2023/09/10 02:22:38;;;;;;;5.75;5.28;;;21.10;99.90;;;;;;5007022;28;20236;-70
2023/09/10 02:25:06;;;;;;;5.88;5.38;;;21.10;99.90;;;;;;5008075;28;20216;-70
2023/09/10 02:27:33;;;;;;;5.95;5.45;;;21.00;99.90;;;;;;5010446;28;20670;-70
2023/09/10 02:30:00;;;;;;;5.35;4.95;;;21.00;99.90;;;;;;5008630;28;20279;-70
2023/09/10 02:32:29;;;;;;;5.65;5.25;;;21.00;99.90;;;;;;5008045;28;20203;-70
2023/09/10 02:34:56;;;;;;;5.88;5.38;;;21.00;99.90;;;;;;5009396;28;20254;-70
2023/09/10 02:37:23;;;;;;;5.18;4.78;;;21.00;99.90;;;;;;5005717;28;20849;-70
2023/09/10 02:39:50;;;;;;;5.38;4.97;;;21.00;99.90;;;;;;5007454;28;20248;-71
2023/09/10 02:42:17;;;;;;;5.53;5.07;;;21.00;99.90;;;;;;5004895;28;20212;-70
2023/09/10 02:44:44;;;;;;;5.30;4.90;;;21.00;99.90;;;;;;5008587;28;20347;-71
2023/09/10 02:47:11;;;;;;;5.30;4.90;;;21.00;99.90;;;;;;4990819;28;20208;-70
2023/09/10 02:49:39;;;;;;;5.40;5.00;;;20.90;99.90;;;;;;5006818;28;20200;-71
2023/09/10 02:52:06;;;;;;;5.45;5.05;;;20.90;99.90;;;;;;5007414;28;20237;-70
2023/09/10 02:54:35;;;;;;;5.47;5.07;;;20.90;99.90;;;;;;4987353;28;20315;-71
2023/09/10 02:57:02;;;;;;;5.45;5.03;;;20.90;99.90;;;;;;5010105;28;20236;-70
2023/09/10 02:59:29;;;;;;;5.72;5.22;;;20.90;99.90;;;;;;5005537;28;20243;-71
2023/09/10 03:01:56;;;;;;;5.80;5.32;;;20.80;99.90;;;;;;4998773;28;20244;-71
2023/09/10 03:04:23;;;;;;;5.32;4.93;;;20.80;99.90;;;;;;4991858;28;20309;-71
2023/09/10 03:06:52;;;;;;;5.53;5.13;;;20.70;99.90;;;;;;5004678;28;20280;-71
2023/09/10 03:09:19;;;;;;;6.32;5.82;;;20.70;99.90;;;;;;5006303;28;20676;-71
2023/09/10 03:11:47;;;;;;;5.65;5.15;;;20.70;99.90;;;;;;5003554;28;20250;-71
2023/09/10 03:14:16;;;;;;;5.32;4.93;;;20.70;99.90;;;;;;5003219;28;20244;-70
2023/09/10 03:16:43;;;;;;;6.00;5.50;;;20.60;99.90;;;;;;5001477;28;20208;-71
2023/09/10 03:19:11;;;;;;;5.88;5.45;;;20.60;99.90;;;;;;4987106;28;20219;-71
2023/09/10 03:21:38;;;;;;;6.20;5.70;;;20.60;99.90;;;;;;5007568;28;20201;-71
2023/09/10 03:24:08;;;;;;;6.22;5.72;;;20.60;99.90;;;;;;5004661;28;20614;-70
2023/09/10 03:26:35;;;;;;;5.88;5.38;;;20.60;99.90;;;;;;5005071;28;20258;-71
2023/09/10 03:29:02;;;;;;;5.85;5.45;;;20.60;99.90;;;;;;5006688;28;20232;-71
2023/09/10 03:31:30;;;;;;;5.88;5.43;;;20.60;99.90;;;;;;5005555;28;20204;-71
2023/09/10 03:33:57;;;;;;;5.95;5.45;;;20.60;99.90;;;;;;5006124;28;20220;-71
2023/09/10 03:36:24;;;;;;;6.30;5.80;;;20.60;99.90;;;;;;5006622;28;20286;-71
2023/09/10 03:38:51;;;;;;;6.63;5.95;;;20.60;99.90;;;;;;5004288;28;20302;-71
2023/09/10 03:41:20;;;;;;;6.50;5.82;;;20.50;99.90;;;;;;5003634;28;20344;-71
2023/09/10 03:43:47;;;;;;;6.28;5.78;;;20.50;99.90;;;;;;4986249;28;20974;-70
2023/09/10 03:46:14;;;;;;;5.47;4.97;;;20.50;99.90;;;;;;5007945;28;20284;-71
2023/09/10 03:48:41;;;;;;;5.82;5.40;;;20.50;99.90;;;;;;5005476;28;20227;-71
2023/09/10 03:51:08;;;;;;;6.15;5.55;;;20.40;99.90;;;;;;5005172;28;20224;-71
2023/09/10 03:53:35;;;;;;;6.38;5.88;;;20.40;99.90;;;;;;5003374;28;20670;-71
2023/09/10 03:56:02;;;;;;;6.07;5.47;;;20.40;99.90;;;;;;5008363;28;20204;-71
2023/09/10 03:58:30;;;;;;;6.22;5.72;;;20.40;99.90;;;;;;5010962;28;20205;-71
2023/09/10 04:00:58;;;;;;;6.22;5.68;;;20.30;99.90;;;;;;5006485;28;20297;-71
2023/09/10 04:03:25;;;;;;;5.75;5.35;;;20.30;99.90;;;;;;5008706;28;20278;-71
2023/09/10 04:05:53;;;;;;;5.75;5.35;;;20.30;99.90;;;;;;4988331;28;20310;-71
2023/09/10 04:08:20;;;;;;;6.47;5.97;;;20.30;99.90;;;;;;5006466;28;20231;-70
2023/09/10 04:10:47;;;;;;;6.78;6.22;;;20.30;99.90;;;;;;5009650;28;20737;-70
2023/09/10 04:13:14;;;;;;;6.53;6.03;;;20.30;99.90;;;;;;5005130;28;20243;-70
2023/09/10 04:15:42;;;;;;;6.00;5.50;;;20.30;99.90;;;;;;5004977;28;20216;-70
2023/09/10 04:18:09;;;;;;;5.95;5.45;;;20.20;99.90;;;;;;5000531;28;20609;-70
2023/09/10 04:20:37;;;;;;;5.70;5.30;;;20.20;99.90;;;;;;5004908;28;20551;-70
2023/09/10 04:23:04;;;;;;;6.53;6.00;;;20.20;99.90;;;;;;4986614;28;20840;-71
2023/09/10 04:25:31;;;;;;;6.50;5.90;;;20.20;99.90;;;;;;5005594;28;20868;-70
2023/09/10 04:27:58;;;;;;;6.47;5.97;;;20.20;99.90;;;;;;5004560;28;20266;-71
2023/09/10 04:30:25;;;;;;;6.25;5.75;;;20.20;99.90;;;;;;5004537;28;20228;-71
2023/09/10 04:32:54;;;;;;;5.63;5.22;;;20.20;99.90;;;;;;5001313;28;20208;-71
2023/09/10 04:35:21;;;;;;;6.45;5.82;;;20.30;99.90;;;;;;5003945;28;20251;-71
2023/09/10 04:37:49;;;;;;;6.57;6.07;;;20.30;99.90;;;;;;5008058;28;20263;-71
2023/09/10 04:40:17;;;;;;;6.32;5.82;;;20.20;99.90;;;;;;5004738;28;20704;-71
2023/09/10 04:42:44;;;;;;;6.13;5.72;;;20.20;99.90;;;;;;4992410;28;20227;-71
2023/09/10 04:45:11;;;;;;;6.70;6.15;;;20.20;99.90;;;;;;5003274;28;20311;-71
2023/09/10 04:47:38;;;;;;;6.53;5.72;;;20.20;99.90;;;;;;5005336;28;20753;-71
2023/09/10 04:50:09;;;;;;;5.57;5.18;;;20.20;99.90;;;;;;5002278;28;20201;-71
2023/09/10 04:52:36;;;;;;;5.90;5.47;;;20.20;99.90;;;;;;5007122;28;20237;-71
2023/09/10 04:55:03;;;;;;;6.68;6.10;;;20.20;99.90;;;;;;5006022;28;20243;-71
2023/09/10 04:57:30;;;;;;;6.43;5.93;;;20.20;99.90;;;;;;5004442;28;20297;-71
2023/09/10 04:59:57;;;;;;;7.30;6.70;;;20.30;99.90;;;;;;5003154;28;20255;-71
2023/09/10 05:02:24;;;;;;;7.10;6.50;;;20.30;99.90;;;;;;5006598;28;20231;-71
2023/09/10 05:04:51;;;;;;;7.25;6.65;;;20.40;99.90;;;;;;5002898;28;20268;-71
2023/09/10 05:07:19;;;;;;;7.05;6.35;;;20.40;99.90;;;;;;4989001;28;20211;-71
2023/09/10 05:09:46;;;;;;;6.60;6.00;;;20.50;99.90;;;;;;5001479;28;20624;-71
2023/09/10 05:12:13;;;;;;;6.85;6.30;;;20.50;99.90;;;;;;5003246;28;20240;-71
2023/09/10 05:14:40;;;;;;;6.75;6.25;;;20.60;99.90;;;;;;5002043;28;21147;-71
2023/09/10 05:17:07;;;;;;;6.57;6.07;;;20.50;99.90;;;;;;4987408;28;20201;-71
2023/09/10 05:19:34;;;;;;;6.40;5.80;;;20.40;99.90;;;;;;5006544;28;20634;-71
2023/09/10 05:22:01;;;;;;;6.47;5.95;;;20.40;99.90;;;;;;5006167;28;20230;-71
2023/09/10 05:24:30;;;;;;;6.47;5.97;;;20.40;99.90;;;;;;4988303;28;20642;-71
2023/09/10 05:26:57;;;;;;;6.13;5.72;;;20.50;99.90;;;;;;5003395;28;20211;-71
2023/09/10 05:29:26;;;;;;;6.55;6.05;;;20.50;99.90;;;;;;5005518;28;20255;-71
2023/09/10 05:31:53;;;;;;;6.60;6.10;;;20.70;99.90;;;;;;5004428;28;20216;-71
2023/09/10 05:34:20;;;;;;;6.85;6.20;;;20.80;99.90;;;;;;5004048;28;20248;-71
2023/09/10 05:36:48;;;;;;;6.55;6.05;;;20.90;99.90;;;;;;4986874;28;20258;-70
2023/09/10 05:39:15;;;;;;;7.05;6.45;;;21.00;99.90;;;;;;5004016;28;20200;-70
2023/09/10 05:41:43;;;;;;;6.68;6.18;;;21.00;99.90;;;;;;5005166;28;20809;-70
2023/09/10 05:44:10;;;;;;;6.57;6.07;;;21.20;99.90;;;;;;5002643;28;20251;-70
2023/09/10 05:46:37;;;;;;;6.18;5.68;;;21.50;99.90;;;;;;4986138;28;20207;-70
2023/09/10 05:49:04;;;;;;;7.35;6.85;;;21.60;99.90;;;;;;5002583;28;20200;-70
2023/09/10 05:51:31;;;;;;;7.82;7.13;;;21.80;99.90;;;;;;5003372;28;20294;-71
2023/09/10 05:53:58;;;;;;;6.68;6.07;;;21.90;99.90;;;;;;5004938;28;20247;-71
2023/09/10 05:56:27;;;;;;;7.65;7.03;;;22.00;99.90;;;;;;5005182;28;20256;-70
2023/09/10 05:58:56;;;;;;;7.20;6.57;;;22.20;99.90;;;;;;5004962;28;20231;-71
2023/09/10 06:01:23;;;;;;;7.53;6.93;;;22.30;99.90;;;;;;5002954;28;20244;-70
2023/09/10 06:03:50;;;;;;;7.20;6.70;;;22.30;99.90;;;;;;5007712;28;20208;-71
2023/09/10 06:06:17;;;;;;;7.30;6.70;;;22.50;99.90;;;;;;5014949;28;20224;-71
2023/09/10 06:08:44;;;;;;;7.43;6.65;;;22.70;99.90;;;;;;5003218;28;20833;-71
2023/09/10 06:11:11;;;;;;;7.82;7.20;;;22.90;99.90;;;;;;5004434;28;20232;-71
2023/09/10 06:13:38;;;;;;;8.10;7.40;;;23.10;99.90;;;;;;5003699;28;20255;-71
2023/09/10 06:16:06;;;;;;;7.72;7.13;;;23.30;99.90;;;;;;5003634;28;20204;-71
2023/09/10 06:18:33;;;;;;;7.10;6.50;;;23.40;99.90;;;;;;4987125;28;20258;-71
2023/09/10 06:21:00;;;;;;;6.85;6.30;;;23.40;99.90;;;;;;5010532;28;20313;-71
2023/09/10 06:23:27;;;;;;;6.50;6.00;;;23.60;99.90;;;;;;5008597;28;20232;-71
2023/09/10 06:25:54;;;;;;;7.43;6.82;;;23.80;99.90;;;;;;5007627;28;20314;-71
2023/09/10 06:28:24;;;;;;;7.00;6.50;;;24.20;99.90;;;;;;5008870;28;20228;-72
2023/09/10 06:30:51;;;;;;;7.07;6.47;;;24.40;99.90;;;;;;5008005;28;20204;-71
2023/09/10 06:33:19;;;;;;;7.28;6.60;;;24.50;99.90;;;;;;4987870;28;20223;-71
2023/09/10 06:35:46;;;;;;;7.10;6.50;;;24.60;99.90;;;;;;5007523;28;20220;-71
2023/09/10 06:38:13;;;;;;;7.15;6.65;;;24.80;99.90;;;;;;5007719;28;20232;-70
2023/09/10 06:40:40;;;;;;;7.57;6.97;;;24.80;99.90;;;;;;5004149;28;20713;-71
2023/09/10 06:43:09;;;;;;;6.95;6.45;;;24.70;99.90;;;;;;5013018;28;20282;-70
2023/09/10 06:45:36;;;;;;;6.95;6.45;;;24.70;99.90;;;;;;4990534;28;20312;-71
2023/09/10 06:48:04;;;;;;;6.40;5.90;;;24.80;99.90;;;;;;5006028;28;20205;-71
2023/09/10 06:50:32;;;;;;;6.85;6.35;;;25.20;99.90;;;;;;5009990;28;20231;-71
2023/09/10 06:52:59;;;;;;;7.28;6.68;;;25.40;99.90;;;;;;5008276;28;20282;-71
2023/09/10 06:55:26;;;;;;;7.30;6.70;;;25.50;99.90;;;;;;5008455;28;20328;-71
2023/09/10 06:57:55;;;;;;;7.32;6.72;;;25.60;99.90;;;;;;5006257;28;20200;-71
2023/09/10 07:00:22;;;;;;;7.93;7.22;;;25.80;99.90;;;;;;5008788;28;20216;-71
2023/09/10 07:02:49;;;;;;;7.38;6.78;;;25.80;99.90;;;;;;5003918;28;20205;-71
2023/09/10 07:05:16;;;;;;;8.02;7.32;;;25.80;99.90;;;;;;5008152;28;20224;-71
2023/09/10 07:07:45;;;;;;;7.45;6.85;;;25.70;99.90;;;;;;4989605;28;20199;-71
2023/09/10 07:10:12;;;;;;;7.32;6.72;;;25.50;99.90;;;;;;5011329;28;20283;-71
2023/09/10 07:12:39;;;;;;;7.43;6.82;;;25.50;99.90;;;;;;5005694;28;20947;-71
2023/09/10 07:15:07;;;;;;;7.55;6.95;;;25.60;99.90;;;;;;5009484;28;20216;-71
2023/09/10 07:17:34;;;;;;;7.93;7.22;;;25.60;99.90;;;;;;5007280;28;20255;-71
2023/09/10 07:20:01;;;;;;;7.60;7.00;;;25.70;99.90;;;;;;5009199;28;20200;-71
2023/09/10 07:22:28;;;;;;;7.70;7.00;;;25.80;99.90;;;;;;5005951;28;20200;-71
2023/09/10 07:24:56;;;;;;;7.60;6.97;;;26.00;99.90;;;;;;5006363;28;20260;-72
2023/09/10 07:27:23;;;;;;;7.55;6.82;;;26.30;99.90;;;;;;5008929;28;20227;-72
2023/09/10 07:29:50;;;;;;;7.53;6.93;;;26.50;99.90;;;;;;4990827;28;20204;-72
2023/09/10 07:32:17;;;;;;;7.15;6.55;;;26.70;99.90;;;;;;4975428;28;20227;-72
2023/09/10 07:34:44;;;;;;;8.20;7.40;;;26.90;99.90;;;;;;5007122;28;20669;-71
2023/09/10 07:37:11;;;;;;;7.20;6.55;;;27.10;99.90;;;;;;5007138;28;20321;-71
2023/09/10 07:39:38;;;;;;;7.75;7.05;;;27.10;99.90;;;;;;5005214;28;20236;-71
2023/09/10 07:42:07;;;;;;;7.45;6.85;;;27.00;99.90;;;;;;5005863;28;20247;-71
2023/09/10 07:44:34;;;;;;;7.35;6.75;;;27.00;99.90;;;;;;5007176;28;20306;-71
2023/09/10 07:47:01;;;;;;;8.05;7.25;;;26.80;99.90;;;;;;5005845;28;20282;-71
2023/09/10 07:49:28;;;;;;;7.72;7.13;;;26.70;99.90;;;;;;5008006;28;20286;-71
2023/09/10 07:51:55;;;;;;;7.38;6.72;;;26.90;99.90;;;;;;5003108;28;20196;-71
2023/09/10 07:54:22;;;;;;;7.35;6.75;;;26.90;99.90;;;;;;4990809;28;20216;-71
2023/09/10 07:56:52;;;;;;;6.95;6.30;;;26.70;99.90;;;;;;5006076;28;20246;-72
2023/09/10 07:59:20;;;;;;;7.65;6.95;;;26.90;99.90;;;;;;5009221;28;20204;-71
2023/09/10 08:01:47;;;;;;;7.90;7.20;;;27.10;99.90;;;;;;5009012;28;20309;-72
2023/09/10 08:04:14;;;;;;;6.95;6.45;;;27.10;99.90;;;;;;5006995;28;20333;-71
2023/09/10 08:06:41;;;;;;;7.53;6.90;;;27.20;99.90;;;;;;5005821;28;20841;-72
2023/09/10 08:09:09;;;;;;;7.28;6.68;;;27.20;99.90;;;;;;5005570;28;20231;-71
2023/09/10 08:11:36;;;;;;;7.15;6.55;;;27.40;99.90;;;;;;4991201;28;20227;-71
2023/09/10 08:14:03;;;;;;;8.07;7.28;;;27.60;99.90;;;;;;5004868;28;20228;-70
2023/09/10 08:16:32;;;;;;;7.72;7.07;;;27.60;99.90;;;;;;5004129;28;20255;-72
2023/09/10 08:18:59;;;;;;;7.72;7.05;;;27.30;99.90;;;;;;5006235;28;20266;-71
2023/09/10 08:21:27;;;;;;;7.78;7.18;;;27.30;99.90;;;;;;4972005;28;20626;-71
2023/09/10 08:23:54;;;;;;;7.53;6.82;;;27.20;99.90;;;;;;5005056;28;20337;-71
2023/09/10 08:26:21;;;;;;;7.10;6.50;;;27.30;99.90;;;;;;5006219;28;20274;-71
2023/09/10 08:28:48;;;;;;;8.02;7.22;;;27.20;99.90;;;;;;5006347;28;20227;-71
2023/09/10 08:31:15;;;;;;;7.22;6.68;;;27.30;99.90;;;;;;5006051;28;20251;-71
2023/09/10 08:33:44;;;;;;;7.70;7.00;;;27.40;99.90;;;;;;5003192;28;20255;-70
2023/09/10 08:36:11;;;;;;;7.80;7.10;;;27.50;99.90;;;;;;5002415;28;20239;-70
2023/09/10 08:38:38;;;;;;;7.40;6.75;;;27.80;99.90;;;;;;5007777;28;20286;-70
2023/09/10 08:41:13;;;;;;;8.70;6.72;;;28.10;99.90;;;;;;4993963;28;20251;-70
2023/09/10 08:43:47;;;;;;;7.45;6.95;;;28.40;99.90;;;;;;5004742;28;20758;-70
2023/09/10 08:46:15;;;;;;;7.55;6.95;;;28.70;99.90;;;;;;5003542;28;20234;-70
2023/09/10 08:48:44;;;;;;;8.25;6.75;;;28.70;99.90;;;;;;5006249;28;20261;-70
2023/09/10 08:51:12;;;;;;;7.60;6.90;;;28.90;99.90;;;;;;5009550;28;20681;-70
2023/09/10 08:53:41;;;;;;;7.60;6.97;;;28.70;99.90;;;;;;5002434;28;20674;-70
2023/09/10 08:56:08;;;;;;;7.15;6.55;;;28.50;99.90;;;;;;5004571;28;20205;-70
2023/09/10 08:58:38;;;;;;;7.22;6.63;;;28.40;99.90;;;;;;5007594;28;20231;-70
2023/09/10 09:01:05;;;;;;;7.50;6.90;;;28.30;99.90;;;;;;5009447;28;20306;-70
2023/09/10 09:03:33;;;;;;;7.20;6.65;;;28.30;99.90;;;;;;5005371;28;20253;-70
2023/09/10 09:06:04;;;;;;;7.40;6.65;;;28.40;99.90;;;;;;5005630;28;20254;-70
2023/09/10 09:08:33;;;;;;;7.57;6.97;;;28.30;99.90;;;;;;5008536;28;20208;-70
2023/09/10 09:11:04;;;;;;;7.63;7.03;;;28.30;99.90;;;;;;5010117;28;20824;-70
2023/09/10 09:13:34;;;;;;;7.53;6.95;;;28.50;99.90;;;;;;5006637;28;20208;-70
2023/09/10 09:16:03;;;;;;;7.35;6.75;;;28.70;99.90;;;;;;5006629;28;20200;-70
2023/09/10 09:18:30;;;;;;;7.38;6.78;;;28.80;99.90;;;;;;5007767;28;20239;-70
2023/09/10 09:21:02;;;;;;;8.23;7.53;;;28.80;99.90;;;;;;5002784;28;20255;-71
2023/09/10 09:23:33;;;;;;;7.50;6.82;;;28.90;99.90;;;;;;5008383;28;20203;-70
2023/09/10 09:26:04;;;;;;;7.47;6.88;;;28.80;99.90;;;;;;5002767;28;20294;-71
2023/09/10 09:28:33;;;;;;;6.78;6.28;;;28.70;99.90;;;;;;5007080;28;20196;-70
2023/09/10 09:31:00;;;;;;;6.80;6.30;;;28.70;99.90;;;;;;5003997;28;20748;-70
2023/09/10 09:33:27;;;;;;;7.10;6.60;;;28.80;99.90;;;;;;5004141;28;20227;-71
2023/09/10 09:35:54;;;;;;;7.13;6.50;;;29.00;99.90;;;;;;4990622;28;20250;-70
2023/09/10 09:38:21;;;;;;;7.70;7.05;;;29.10;99.90;;;;;;4988733;28;20227;-71
2023/09/10 09:40:50;;;;;;;7.93;7.22;;;29.30;99.90;;;;;;4990058;28;20275;-70
2023/09/10 09:43:17;;;;;;;7.43;6.82;;;29.40;99.90;;;;;;5005251;28;20259;-71
2023/09/10 09:45:45;;;;;;;8.00;7.20;;;29.40;99.90;;;;;;4987307;28;20333;-71
2023/09/10 09:48:12;;;;;;;7.95;7.35;;;29.40;99.90;;;;;;5004263;28;20363;-71
2023/09/10 09:50:39;;;;;;;7.43;6.82;;;29.40;99.90;;;;;;5004041;28;20244;-70
2023/09/10 09:53:06;;;;;;;7.30;6.70;;;29.40;99.90;;;;;;5001640;28;20235;-71
2023/09/10 09:55:33;;;;;;;7.65;7.05;;;29.40;99.90;;;;;;5010847;28;20266;-70
2023/09/10 09:58:05;;;;;;;8.07;7.28;;;29.40;99.90;;;;;;5005539;28;20297;-71
2023/09/10 10:00:34;;;;;;;7.13;6.53;;;29.40;99.90;;;;;;5002840;28;20235;-71
2023/09/10 10:03:01;;;;;;;7.57;6.88;;;29.50;99.90;;;;;;4989920;28;20775;-71
2023/09/10 10:05:29;;;;;;;8.20;7.40;;;29.50;99.90;;;;;;5003619;28;20228;-71
2023/09/10 10:07:56;;;;;;;7.38;6.57;;;29.20;99.90;;;;;;5007642;28;20261;-71
2023/09/10 10:10:23;;;;;;;7.25;6.72;;;29.40;99.90;;;;;;5013604;28;20243;-71
2023/09/10 10:12:53;;;;;;;7.97;7.18;;;29.70;99.90;;;;;;5008924;28;20298;-72
2023/09/10 10:15:23;;;;;;;7.82;7.00;;;30.00;99.90;;;;;;5010021;28;20800;-71
2023/09/10 10:17:53;;;;;;;7.20;6.60;;;29.90;99.90;;;;;;5007077;28;20203;-71
2023/09/10 10:20:21;;;;;;;7.47;6.93;;;29.80;99.90;;;;;;5011596;28;20653;-71
2023/09/10 10:22:48;;;;;;;8.57;7.95;;;29.60;99.90;;;;;;5006405;28;20224;-72
2023/09/10 10:25:15;;;;;;;8.07;7.38;;;29.50;99.90;;;;;;4988246;28;20228;-71
2023/09/10 10:27:44;;;;;;;8.40;7.68;;;29.50;99.90;;;;;;5005338;28;20240;-71
2023/09/10 10:30:12;;;;;;;7.53;6.93;;;29.50;99.90;;;;;;5006228;28;20204;-72
2023/09/10 10:32:42;;;;;;;6.53;6.03;;;29.50;99.90;;;;;;5006735;28;20189;-71
2023/09/10 10:35:11;;;;;;;7.20;6.50;;;29.50;99.90;;;;;;5012529;28;20429;-71
2023/09/10 10:37:48;;;;;;;7.88;7.28;;;29.60;99.90;;;;;;5021939;28;20207;-72
2023/09/10 10:40:19;;;;;;;7.30;6.70;;;29.60;99.90;;;;;;5006734;28;20235;-71
2023/09/10 10:42:51;;;;;;;7.47;6.80;;;29.60;99.90;;;;;;5008517;28;20252;-71
2023/09/10 10:45:18;;;;;;;7.60;6.80;;;29.70;99.90;;;;;;5005689;28;20266;-72
2023/09/10 10:47:48;;;;;;;7.47;6.72;;;29.80;99.90;;;;;;5008245;28;20196;-71
2023/09/10 10:50:21;;;;;;;7.05;6.47;;;30.00;99.90;;;;;;5009801;28;20243;-71
2023/09/10 10:52:56;;;;;;;6.68;6.18;;;30.00;99.90;;;;;;5008343;28;20211;-71
2023/09/10 10:55:24;;;;;;;7.22;6.72;;;30.00;99.90;;;;;;5007980;28;20216;-72
2023/09/10 10:57:52;;;;;;;6.32;5.90;;;30.00;99.90;;;;;;4991323;28;20236;-72
2023/09/10 11:00:19;;;;;;;7.40;6.78;;;30.10;99.90;;;;;;5008089;28;20204;-71
2023/09/10 11:02:49;;;;;;;7.28;6.68;;;30.00;99.90;;;;;;5009262;28;20310;-71
2023/09/10 11:05:16;;;;;;;6.80;6.20;;;30.00;99.90;;;;;;5007407;28;20839;-71
2023/09/10 11:07:45;;;;;;;7.40;6.80;;;30.20;99.90;;;;;;5010598;28;20203;-71
2023/09/10 11:10:41;;;;;;;6.80;6.20;;;30.30;99.90;;;;;;5012582;28;20209;-71
2023/09/10 11:13:09;;;;;;;7.40;6.53;;;30.50;99.90;;;;;;5006674;28;20215;-71
2023/09/10 11:15:36;;;;;;;6.80;6.30;;;30.80;99.90;;;;;;5006485;28;20301;-72
2023/09/10 11:18:44;;;;;;;6.18;5.70;;;30.90;99.90;;;;;;4990449;28;20236;-72
2023/09/10 11:21:12;;;;;;;7.22;6.57;;;30.90;99.90;;;;;;5008085;28;20262;-72
2023/09/10 11:23:40;;;;;;;7.15;6.45;;;30.80;99.90;;;;;;4988368;28;20274;-71
2023/09/10 11:26:34;;;;;;;6.80;6.20;;;30.80;99.90;;;;;;5009832;28;20274;-71
2023/09/10 11:29:04;;;;;;;7.63;6.90;;;30.70;99.90;;;;;;4971587;28;20763;-71
2023/09/10 11:31:41;;;;;;;7.70;7.10;;;30.50;99.90;;;;;;5008222;28;20208;-71
2023/09/10 11:34:39;;;;;;;6.47;5.88;;;30.30;99.90;;;;;;5005407;28;20710;-72
2023/09/10 11:37:08;;;;;;;7.55;6.88;;;30.30;99.90;;;;;;5008938;28;20681;-71
2023/09/10 11:39:37;;;;;;;7.40;6.88;;;30.10;99.90;;;;;;4989643;28;20196;-71
2023/09/10 11:42:09;;;;;;;7.43;6.82;;;29.90;99.90;;;;;;5007413;28;20255;-71
2023/09/10 11:44:37;;;;;;;7.53;6.82;;;29.90;99.90;;;;;;5006200;28;20216;-71
2023/09/10 11:47:04;;;;;;;7.60;7.00;;;30.00;99.90;;;;;;5006988;28;20219;-72
2023/09/10 11:49:31;;;;;;;8.20;7.20;;;30.10;99.90;;;;;;5009680;28;20231;-72
2023/09/10 11:52:00;;;;;;;7.20;6.60;;;30.20;99.90;;;;;;5004749;28;20200;-72
2023/09/10 11:54:29;;;;;;;6.93;6.30;;;30.10;99.90;;;;;;5009526;28;20276;-71
2023/09/10 11:56:57;;;;;;;7.93;7.22;;;30.10;99.90;;;;;;4987008;28;20206;-71
2023/09/10 11:59:26;;;;;;;8.00;7.30;;;30.00;99.90;;;;;;5003712;28;20196;-71
2023/09/10 12:01:56;;;;;;;7.13;6.53;;;30.00;99.90;;;;;;5006819;28;20657;-71
2023/09/10 12:04:28;;;;;;;8.48;7.72;;;29.90;99.90;;;;;;5005199;28;20255;-71
2023/09/10 12:06:55;;;;;;;7.93;7.20;;;29.90;99.90;;;;;;5009249;28;20204;-71
2023/09/10 12:09:24;;;;;;;7.53;6.90;;;30.00;99.90;;;;;;5006869;28;20252;-71
2023/09/10 12:11:53;;;;;;;7.50;6.90;;;30.20;99.90;;;;;;5007000;28;20204;-72
2023/09/10 12:14:21;;;;;;;6.80;6.30;;;30.20;99.90;;;;;;5004471;28;20285;-71
2023/09/10 12:16:48;;;;;;;7.50;6.80;;;30.10;99.90;;;;;;5001585;28;20239;-72
2023/09/10 12:19:16;;;;;;;6.57;6.07;;;30.40;99.90;;;;;;5002293;28;20196;-72
2023/09/10 12:21:44;;;;;;;8.30;7.38;;;30.60;99.90;;;;;;5003832;28;20252;-72
2023/09/10 12:24:11;;;;;;;7.97;7.38;;;30.60;99.90;;;;;;5006426;28;20255;-73
2023/09/10 12:26:40;;;;;;;7.22;6.63;;;30.50;99.90;;;;;;5004453;28;20321;-73
2023/09/10 12:29:07;;;;;;;7.82;7.13;;;30.60;99.90;;;;;;5004507;28;20748;-73
2023/09/10 12:31:35;;;;;;;7.90;7.30;;;30.50;99.90;;;;;;5003381;28;20285;-74
2023/09/10 12:34:03;;;;;;;7.07;6.47;;;30.40;99.90;;;;;;5007145;28;20220;-74
2023/09/10 12:36:31;;;;;;;7.35;6.65;;;30.30;99.90;;;;;;5000947;28;20204;-73
2023/09/10 12:39:00;;;;;;;7.47;6.88;;;30.50;99.90;;;;;;5012702;28;20261;-72
2023/09/10 12:41:28;;;;;;;6.72;6.18;;;30.50;99.90;;;;;;5003385;28;20262;-73
2023/09/10 12:43:56;;;;;;;7.28;6.68;;;30.80;99.90;;;;;;4970950;28;20226;-73
2023/09/10 12:46:23;;;;;;;7.28;6.65;;;31.10;99.90;;;;;;5005205;28;20559;-73
2023/09/10 12:48:51;;;;;;;6.72;6.22;;;31.20;99.90;;;;;;5006567;28;20398;-72
2023/09/10 12:51:18;;;;;;;7.00;6.40;;;31.30;99.90;;;;;;5007776;28;20290;-73
2023/09/10 12:53:46;;;;;;;6.78;6.28;;;31.20;99.90;;;;;;5004953;28;20231;-72